Rechercher aéroport 
image banner adimage banner adimage banner ad
image banner ad

18PA - Slack

Situé à Forest Grove, United States

ICAO - 18PA, IATA -

Données fournies par Airmate  

Information générale

Coordonnées: N40°17'37" W75°3'53"
Élévation : 275 feet MSL.
Variation magnétique : -12° East
Voir autres Aéroports à Pennsylvania

Données opérationnelles

Special qualification required
Heure actuelle UTC:
Heure actuelle locale:
Météo à : KDYL - Doylestown ( 7 km )
METAR: KDYL 131854Z AUTO 00000KT 10SM BKN035 OVC042 24/17 A2991 RMK AO2 SLP123 T02390172 $
Voir NOTAMs / SUP AIP / TFR affectant cet aéroport [VIEW]
Fréquences de communication: [VIEW]

Pistes:

Identifiant RWYQFULongueur (ft)Largeur (ft)SurfaceLDA (ft)
141850100GRASS
321850100GRASS

Coordonnées de l'aéroport

Adresse: Forest Grove United States

Vue satellite de 18PA